sensor_id;sensor_type;location;lat;lon;timestamp;P1;P2;P0
55911;PMS5003;41823;45.534;-73.332;2022-09-09T00:00:55;5;5;
55911;PMS5003;41823;45.534;-73.332;2022-09-09T00:03:35;5;5;
55911;PMS5003;41823;45.534;-73.332;2022-09-09T00:06:11;6;6;
55911;PMS5003;41823;45.534;-73.332;2022-09-09T00:08:51;5;5;
55911;PMS5003;41823;45.534;-73.332;2022-09-09T00:11:28;5;5;
55911;PMS5003;41823;45.534;-73.332;2022-09-09T00:14:05;219;200;
55911;PMS5003;41823;45.534;-73.332;2022-09-09T00:16:43;306;273;
55911;PMS5003;41823;45.534;-73.332;2022-09-09T00:19:20;332;303;
55911;PMS5003;41823;45.534;-73.332;2022-09-09T00:21:57;161;152;
55911;PMS5003;41823;45.534;-73.332;2022-09-09T00:24:38;78;74;
55911;PMS5003;41823;45.534;-73.332;2022-09-09T00:27:13;38;37;
55911;PMS5003;41823;45.534;-73.332;2022-09-09T00:29:51;22;22;
55911;PMS5003;41823;45.534;-73.332;2022-09-09T00:32:24;14;13;
55911;PMS5003;41823;45.534;-73.332;2022-09-09T00:34:59;9;9;
55911;PMS5003;41823;45.534;-73.332;2022-09-09T00:37:31;6;6;
55911;PMS5003;41823;45.534;-73.332;2022-09-09T00:40:01;6;6;
55911;PMS5003;41823;45.534;-73.332;2022-09-09T00:42:36;7;7;
55911;PMS5003;41823;45.534;-73.332;2022-09-09T00:45:10;4;4;
55911;PMS5003;41823;45.534;-73.332;2022-09-09T00:48:01;4;4;
55911;PMS5003;41823;45.534;-73.332;2022-09-09T00:50:40;5;4;
55911;PMS5003;41823;45.534;-73.332;2022-09-09T00:53:19;4;4;
55911;PMS5003;41823;45.534;-73.332;2022-09-09T00:56:00;4;4;
55911;PMS5003;41823;45.534;-73.332;2022-09-09T00:58:38;6;6;
55911;PMS5003;41823;45.534;-73.332;2022-09-09T01:01:08;5;5;
55911;PMS5003;41823;45.534;-73.332;2022-09-09T01:03:40;4;4;
55911;PMS5003;41823;45.534;-73.332;2022-09-09T01:06:15;5;5;
55911;PMS5003;41823;45.534;-73.332;2022-09-09T01:08:55;240;216;
55911;PMS5003;41823;45.534;-73.332;2022-09-09T01:11:33;366;333;
55911;PMS5003;41823;45.534;-73.332;2022-09-09T01:14:11;192;179;
55911;PMS5003;41823;45.534;-73.332;2022-09-09T01:16:50;87;84;
55911;PMS5003;41823;45.534;-73.332;2022-09-09T01:19:24;41;40;
55911;PMS5003;41823;45.534;-73.332;2022-09-09T01:22:03;21;21;
55911;PMS5003;41823;45.534;-73.332;2022-09-09T01:24:44;11;11;
55911;PMS5003;41823;45.534;-73.332;2022-09-09T01:27:21;8;8;
55911;PMS5003;41823;45.534;-73.332;2022-09-09T01:29:51;7;7;
55911;PMS5003;41823;45.534;-73.332;2022-09-09T01:32:53;7;6;
55911;PMS5003;41823;45.534;-73.332;2022-09-09T01:35:27;4;4;
55911;PMS5003;41823;45.534;-73.332;2022-09-09T01:38:01;4;4;
55911;PMS5003;41823;45.534;-73.332;2022-09-09T01:40:29;6;6;
55911;PMS5003;41823;45.534;-73.332;2022-09-09T01:42:57;5;5;
55911;PMS5003;41823;45.534;-73.332;2022-09-09T01:45:25;5;5;
55911;PMS5003;41823;45.534;-73.332;2022-09-09T01:47:53;6;6;
55911;PMS5003;41823;45.534;-73.332;2022-09-09T01:50:22;6;5;
55911;PMS5003;41823;45.534;-73.332;2022-09-09T01:52:50;7;6;
55911;PMS5003;41823;45.534;-73.332;2022-09-09T01:55:23;6;6;
55911;PMS5003;41823;45.534;-73.332;2022-09-09T01:58:00;6;6;
55911;PMS5003;41823;45.534;-73.332;2022-09-09T02:00:40;6;5;
55911;PMS5003;41823;45.534;-73.332;2022-09-09T02:03:15;5;5;
55911;PMS5003;41823;45.534;-73.332;2022-09-09T02:05:52;5;4;
55911;PMS5003;41823;45.534;-73.332;2022-09-09T02:08:29;6;6;
55911;PMS5003;41823;45.534;-73.332;2022-09-09T02:11:07;7;7;
55911;PMS5003;41823;45.534;-73.332;2022-09-09T02:13:39;4;4;
55911;PMS5003;41823;45.534;-73.332;2022-09-09T02:16:11;4;4;
55911;PMS5003;41823;45.534;-73.332;2022-09-09T02:18:46;6;6;
55911;PMS5003;41823;45.534;-73.332;2022-09-09T02:21:17;6;6;
55911;PMS5003;41823;45.534;-73.332;2022-09-09T02:23:47;5;5;
55911;PMS5003;41823;45.534;-73.332;2022-09-09T02:26:16;5;5;
55911;PMS5003;41823;45.534;-73.332;2022-09-09T02:28:47;8;7;
55911;PMS5003;41823;45.534;-73.332;2022-09-09T02:28:50;8;7;
55911;PMS5003;41823;45.534;-73.332;2022-09-09T02:31:21;5;5;
55911;PMS5003;41823;45.534;-73.332;2022-09-09T02:33:52;4;4;
55911;PMS5003;41823;45.534;-73.332;2022-09-09T02:36:25;7;7;
55911;PMS5003;41823;45.534;-73.332;2022-09-09T02:38:56;7;7;
55911;PMS5003;41823;45.534;-73.332;2022-09-09T02:41:26;5;5;
55911;PMS5003;41823;45.534;-73.332;2022-09-09T02:43:59;6;6;
55911;PMS5003;41823;45.534;-73.332;2022-09-09T02:46:32;7;5;
55911;PMS5003;41823;45.534;-73.332;2022-09-09T02:49:16;5;5;
55911;PMS5003;41823;45.534;-73.332;2022-09-09T02:51:51;6;6;
55911;PMS5003;41823;45.534;-73.332;2022-09-09T02:54:28;5;5;
55911;PMS5003;41823;45.534;-73.332;2022-09-09T02:56:59;6;5;
55911;PMS5003;41823;45.534;-73.332;2022-09-09T02:59:33;5;5;
55911;PMS5003;41823;45.534;-73.332;2022-09-09T03:02:02;5;5;
55911;PMS5003;41823;45.534;-73.332;2022-09-09T03:04:31;5;5;
55911;PMS5003;41823;45.534;-73.332;2022-09-09T03:06:59;6;5;
55911;PMS5003;41823;45.534;-73.332;2022-09-09T03:09:27;4;4;
55911;PMS5003;41823;45.534;-73.332;2022-09-09T03:11:54;239;214;
55911;PMS5003;41823;45.534;-73.332;2022-09-09T03:14:22;347;318;
55911;PMS5003;41823;45.534;-73.332;2022-09-09T03:16:51;294;284;
55911;PMS5003;41823;45.534;-73.332;2022-09-09T03:19:18;144;139;
55911;PMS5003;41823;45.534;-73.332;2022-09-09T03:21:47;72;71;
55911;PMS5003;41823;45.534;-73.332;2022-09-09T03:24:15;41;41;
55911;PMS5003;41823;45.534;-73.332;2022-09-09T03:26:43;24;22;
55911;PMS5003;41823;45.534;-73.332;2022-09-09T03:29:11;11;11;
55911;PMS5003;41823;45.534;-73.332;2022-09-09T03:31:39;9;9;
55911;PMS5003;41823;45.534;-73.332;2022-09-09T03:34:07;7;7;
55911;PMS5003;41823;45.534;-73.332;2022-09-09T03:36:35;6;6;
55911;PMS5003;41823;45.534;-73.332;2022-09-09T03:39:04;6;6;
55911;PMS5003;41823;45.534;-73.332;2022-09-09T03:41:32;6;6;
55911;PMS5003;41823;45.534;-73.332;2022-09-09T03:44:00;6;6;
55911;PMS5003;41823;45.534;-73.332;2022-09-09T03:46:28;7;6;
55911;PMS5003;41823;45.534;-73.332;2022-09-09T03:48:56;6;6;
55911;PMS5003;41823;45.534;-73.332;2022-09-09T03:51:24;5;4;
55911;PMS5003;41823;45.534;-73.332;2022-09-09T03:53:52;6;6;
55911;PMS5003;41823;45.534;-73.332;2022-09-09T03:56:19;6;5;
55911;PMS5003;41823;45.534;-73.332;2022-09-09T03:58:47;6;5;
55911;PMS5003;41823;45.534;-73.332;2022-09-09T04:01:15;3;3;
55911;PMS5003;41823;45.534;-73.332;2022-09-09T04:03:43;4;4;
55911;PMS5003;41823;45.534;-73.332;2022-09-09T04:06:11;6;5;
55911;PMS5003;41823;45.534;-73.332;2022-09-09T04:08:41;6;6;
55911;PMS5003;41823;45.534;-73.332;2022-09-09T04:11:09;5;5;
55911;PMS5003;41823;45.534;-73.332;2022-09-09T04:13:37;5;4;
55911;PMS5003;41823;45.534;-73.332;2022-09-09T04:16:05;5;5;
55911;PMS5003;41823;45.534;-73.332;2022-09-09T04:18:34;7;7;
55911;PMS5003;41823;45.534;-73.332;2022-09-09T04:21:03;6;5;
55911;PMS5003;41823;45.534;-73.332;2022-09-09T04:23:32;7;6;
55911;PMS5003;41823;45.534;-73.332;2022-09-09T04:26:00;5;5;
55911;PMS5003;41823;45.534;-73.332;2022-09-09T04:28:30;4;4;
55911;PMS5003;41823;45.534;-73.332;2022-09-09T04:31:03;5;5;
55911;PMS5003;41823;45.534;-73.332;2022-09-09T04:33:32;4;4;
55911;PMS5003;41823;45.534;-73.332;2022-09-09T04:36:00;6;6;
55911;PMS5003;41823;45.534;-73.332;2022-09-09T04:38:29;4;4;
55911;PMS5003;41823;45.534;-73.332;2022-09-09T04:40:57;7;6;
55911;PMS5003;41823;45.534;-73.332;2022-09-09T04:43:24;6;6;
55911;PMS5003;41823;45.534;-73.332;2022-09-09T04:45:53;7;7;
55911;PMS5003;41823;45.534;-73.332;2022-09-09T04:48:20;4;4;
55911;PMS5003;41823;45.534;-73.332;2022-09-09T04:50:57;6;6;
55911;PMS5003;41823;45.534;-73.332;2022-09-09T04:53:27;7;5;
55911;PMS5003;41823;45.534;-73.332;2022-09-09T04:56:00;6;5;
55911;PMS5003;41823;45.534;-73.332;2022-09-09T04:58:30;6;6;
55911;PMS5003;41823;45.534;-73.332;2022-09-09T05:01:05;4;4;
55911;PMS5003;41823;45.534;-73.332;2022-09-09T05:03:34;5;5;
55911;PMS5003;41823;45.534;-73.332;2022-09-09T05:06:02;6;6;
55911;PMS5003;41823;45.534;-73.332;2022-09-09T05:08:31;4;4;
55911;PMS5003;41823;45.534;-73.332;2022-09-09T05:10:59;6;6;
55911;PMS5003;41823;45.534;-73.332;2022-09-09T05:13:27;6;5;
55911;PMS5003;41823;45.534;-73.332;2022-09-09T05:15:55;9;7;
55911;PMS5003;41823;45.534;-73.332;2022-09-09T05:18:23;6;6;
55911;PMS5003;41823;45.534;-73.332;2022-09-09T05:20:51;5;5;
55911;PMS5003;41823;45.534;-73.332;2022-09-09T05:23:18;6;6;
55911;PMS5003;41823;45.534;-73.332;2022-09-09T05:25:54;5;4;
55911;PMS5003;41823;45.534;-73.332;2022-09-09T05:28:24;7;7;
55911;PMS5003;41823;45.534;-73.332;2022-09-09T05:30:55;6;6;
55911;PMS5003;41823;45.534;-73.332;2022-09-09T05:33:24;5;5;
55911;PMS5003;41823;45.534;-73.332;2022-09-09T05:35:57;6;6;
55911;PMS5003;41823;45.534;-73.332;2022-09-09T05:38:25;5;5;
55911;PMS5003;41823;45.534;-73.332;2022-09-09T05:40:53;6;6;
55911;PMS5003;41823;45.534;-73.332;2022-09-09T05:43:21;6;5;
55911;PMS5003;41823;45.534;-73.332;2022-09-09T05:45:58;5;5;
55911;PMS5003;41823;45.534;-73.332;2022-09-09T05:48:27;5;5;
55911;PMS5003;41823;45.534;-73.332;2022-09-09T05:50:55;5;5;
55911;PMS5003;41823;45.534;-73.332;2022-09-09T05:53:24;6;6;
55911;PMS5003;41823;45.534;-73.332;2022-09-09T05:55:58;6;6;
55911;PMS5003;41823;45.534;-73.332;2022-09-09T05:58:27;6;6;
55911;PMS5003;41823;45.534;-73.332;2022-09-09T06:01:00;7;7;
55911;PMS5003;41823;45.534;-73.332;2022-09-09T06:03:29;5;5;
55911;PMS5003;41823;45.534;-73.332;2022-09-09T06:05:58;6;5;
55911;PMS5003;41823;45.534;-73.332;2022-09-09T06:08:27;7;6;
55911;PMS5003;41823;45.534;-73.332;2022-09-09T06:11:00;7;7;
55911;PMS5003;41823;45.534;-73.332;2022-09-09T06:13:30;5;5;
55911;PMS5003;41823;45.534;-73.332;2022-09-09T06:15:58;7;6;
55911;PMS5003;41823;45.534;-73.332;2022-09-09T06:18:26;5;4;
55911;PMS5003;41823;45.534;-73.332;2022-09-09T06:20:55;5;5;
55911;PMS5003;41823;45.534;-73.332;2022-09-09T06:23:24;6;5;
55911;PMS5003;41823;45.534;-73.332;2022-09-09T06:26:00;7;7;
55911;PMS5003;41823;45.534;-73.332;2022-09-09T06:28:30;8;8;
55911;PMS5003;41823;45.534;-73.332;2022-09-09T06:30:58;6;6;
55911;PMS5003;41823;45.534;-73.332;2022-09-09T06:33:26;5;5;
55911;PMS5003;41823;45.534;-73.332;2022-09-09T06:35:58;5;5;
55911;PMS5003;41823;45.534;-73.332;2022-09-09T06:38:25;6;6;
55911;PMS5003;41823;45.534;-73.332;2022-09-09T06:40:53;6;6;
55911;PMS5003;41823;45.534;-73.332;2022-09-09T06:43:22;5;5;
55911;PMS5003;41823;45.534;-73.332;2022-09-09T06:45:54;5;5;
55911;PMS5003;41823;45.534;-73.332;2022-09-09T06:48:24;6;6;
55911;PMS5003;41823;45.534;-73.332;2022-09-09T06:51:00;6;6;
55911;PMS5003;41823;45.534;-73.332;2022-09-09T06:53:28;6;6;
55911;PMS5003;41823;45.534;-73.332;2022-09-09T06:55:56;6;6;
55911;PMS5003;41823;45.534;-73.332;2022-09-09T06:58:24;7;7;
55911;PMS5003;41823;45.534;-73.332;2022-09-09T07:00:52;7;7;
55911;PMS5003;41823;45.534;-73.332;2022-09-09T07:03:28;6;6;
55911;PMS5003;41823;45.534;-73.332;2022-09-09T07:05:56;7;7;
55911;PMS5003;41823;45.534;-73.332;2022-09-09T07:08:24;5;5;
55911;PMS5003;41823;45.534;-73.332;2022-09-09T07:10:52;6;6;
55911;PMS5003;41823;45.534;-73.332;2022-09-09T07:13:23;5;5;
55911;PMS5003;41823;45.534;-73.332;2022-09-09T07:15:52;6;6;
55911;PMS5003;41823;45.534;-73.332;2022-09-09T07:18:19;7;7;
55911;PMS5003;41823;45.534;-73.332;2022-09-09T07:20:52;5;5;
55911;PMS5003;41823;45.534;-73.332;2022-09-09T07:23:20;6;6;
55911;PMS5003;41823;45.534;-73.332;2022-09-09T07:25:48;6;6;
55911;PMS5003;41823;45.534;-73.332;2022-09-09T07:28:17;6;6;
55911;PMS5003;41823;45.534;-73.332;2022-09-09T07:30:52;6;6;
55911;PMS5003;41823;45.534;-73.332;2022-09-09T07:33:20;5;5;
55911;PMS5003;41823;45.534;-73.332;2022-09-09T07:35:49;5;5;
55911;PMS5003;41823;45.534;-73.332;2022-09-09T07:38:17;7;7;
55911;PMS5003;41823;45.534;-73.332;2022-09-09T07:40:45;5;5;
55911;PMS5003;41823;45.534;-73.332;2022-09-09T07:43:13;5;5;
55911;PMS5003;41823;45.534;-73.332;2022-09-09T07:45:41;7;7;
55911;PMS5003;41823;45.534;-73.332;2022-09-09T07:48:08;6;5;
55911;PMS5003;41823;45.534;-73.332;2022-09-09T07:50:36;7;7;
55911;PMS5003;41823;45.534;-73.332;2022-09-09T07:53:04;5;5;
55911;PMS5003;41823;45.534;-73.332;2022-09-09T07:55:32;5;5;
55911;PMS5003;41823;45.534;-73.332;2022-09-09T07:58:00;6;6;
55911;PMS5003;41823;45.534;-73.332;2022-09-09T08:00:28;6;6;
55911;PMS5003;41823;45.534;-73.332;2022-09-09T08:02:56;6;5;
55911;PMS5003;41823;45.534;-73.332;2022-09-09T08:05:24;7;6;
55911;PMS5003;41823;45.534;-73.332;2022-09-09T08:07:52;5;5;
55911;PMS5003;41823;45.534;-73.332;2022-09-09T08:10:19;5;5;
55911;PMS5003;41823;45.534;-73.332;2022-09-09T08:12:47;7;6;
55911;PMS5003;41823;45.534;-73.332;2022-09-09T08:15:15;6;6;
55911;PMS5003;41823;45.534;-73.332;2022-09-09T08:17:43;6;6;
55911;PMS5003;41823;45.534;-73.332;2022-09-09T08:20:11;5;5;
55911;PMS5003;41823;45.534;-73.332;2022-09-09T08:22:39;7;6;
55911;PMS5003;41823;45.534;-73.332;2022-09-09T08:25:07;6;6;
55911;PMS5003;41823;45.534;-73.332;2022-09-09T08:27:36;7;6;
55911;PMS5003;41823;45.534;-73.332;2022-09-09T08:30:04;4;4;
55911;PMS5003;41823;45.534;-73.332;2022-09-09T08:32:32;5;5;
55911;PMS5003;41823;45.534;-73.332;2022-09-09T08:35:01;6;6;
55911;PMS5003;41823;45.534;-73.332;2022-09-09T08:37:29;4;4;
55911;PMS5003;41823;45.534;-73.332;2022-09-09T08:39:57;5;4;
55911;PMS5003;41823;45.534;-73.332;2022-09-09T08:42:28;5;4;
55911;PMS5003;41823;45.534;-73.332;2022-09-09T08:45:09;6;6;
55911;PMS5003;41823;45.534;-73.332;2022-09-09T08:47:49;4;4;
55911;PMS5003;41823;45.534;-73.332;2022-09-09T08:50:26;5;5;
55911;PMS5003;41823;45.534;-73.332;2022-09-09T08:52:57;6;5;
55911;PMS5003;41823;45.534;-73.332;2022-09-09T08:55:33;6;6;
55911;PMS5003;41823;45.534;-73.332;2022-09-09T08:58:11;6;6;
55911;PMS5003;41823;45.534;-73.332;2022-09-09T09:00:44;7;6;
55911;PMS5003;41823;45.534;-73.332;2022-09-09T09:03:25;5;5;
55911;PMS5003;41823;45.534;-73.332;2022-09-09T09:06:06;6;6;
55911;PMS5003;41823;45.534;-73.332;2022-09-09T09:08:46;6;6;
55911;PMS5003;41823;45.534;-73.332;2022-09-09T09:11:23;5;5;
55911;PMS5003;41823;45.534;-73.332;2022-09-09T09:13:52;6;6;
55911;PMS5003;41823;45.534;-73.332;2022-09-09T09:16:27;4;3;
55911;PMS5003;41823;45.534;-73.332;2022-09-09T09:18:59;5;5;
55911;PMS5003;41823;45.534;-73.332;2022-09-09T09:21:31;7;6;
55911;PMS5003;41823;45.534;-73.332;2022-09-09T09:24:10;5;5;
55911;PMS5003;41823;45.534;-73.332;2022-09-09T09:26:45;5;5;
55911;PMS5003;41823;45.534;-73.332;2022-09-09T09:29:14;7;7;
55911;PMS5003;41823;45.534;-73.332;2022-09-09T09:31:44;6;6;
55911;PMS5003;41823;45.534;-73.332;2022-09-09T09:34:15;5;5;
55911;PMS5003;41823;45.534;-73.332;2022-09-09T09:36:44;6;6;
55911;PMS5003;41823;45.534;-73.332;2022-09-09T09:39:23;7;6;
55911;PMS5003;41823;45.534;-73.332;2022-09-09T09:41:52;7;5;
55911;PMS5003;41823;45.534;-73.332;2022-09-09T09:44:24;5;5;
55911;PMS5003;41823;45.534;-73.332;2022-09-09T09:47:04;6;6;
55911;PMS5003;41823;45.534;-73.332;2022-09-09T09:49:34;6;6;
55911;PMS5003;41823;45.534;-73.332;2022-09-09T09:52:02;6;6;
55911;PMS5003;41823;45.534;-73.332;2022-09-09T09:54:33;5;5;
55911;PMS5003;41823;45.534;-73.332;2022-09-09T09:57:08;5;5;
55911;PMS5003;41823;45.534;-73.332;2022-09-09T09:59:38;6;6;
55911;PMS5003;41823;45.534;-73.332;2022-09-09T10:02:13;5;5;
55911;PMS5003;41823;45.534;-73.332;2022-09-09T10:04:43;5;5;
55911;PMS5003;41823;45.534;-73.332;2022-09-09T10:07:12;6;6;
55911;PMS5003;41823;45.534;-73.332;2022-09-09T10:09:44;7;6;
55911;PMS5003;41823;45.534;-73.332;2022-09-09T10:12:16;6;6;
55911;PMS5003;41823;45.534;-73.332;2022-09-09T10:14:53;6;6;
55911;PMS5003;41823;45.534;-73.332;2022-09-09T10:17:31;5;5;
55911;PMS5003;41823;45.534;-73.332;2022-09-09T10:20:16;5;5;
55911;PMS5003;41823;45.534;-73.332;2022-09-09T10:22:58;8;7;
55911;PMS5003;41823;45.534;-73.332;2022-09-09T10:25:47;6;6;
55911;PMS5003;41823;45.534;-73.332;2022-09-09T10:28:31;3;3;
55911;PMS5003;41823;45.534;-73.332;2022-09-09T10:31:16;7;7;
55911;PMS5003;41823;45.534;-73.332;2022-09-09T10:33:51;6;6;
55911;PMS5003;41823;45.534;-73.332;2022-09-09T10:36:27;6;6;
55911;PMS5003;41823;45.534;-73.332;2022-09-09T10:38:57;8;6;
55911;PMS5003;41823;45.534;-73.332;2022-09-09T10:41:42;6;6;
55911;PMS5003;41823;45.534;-73.332;2022-09-09T10:44:23;5;5;
55911;PMS5003;41823;45.534;-73.332;2022-09-09T10:47:14;7;6;
55911;PMS5003;41823;45.534;-73.332;2022-09-09T10:49:57;5;5;
55911;PMS5003;41823;45.534;-73.332;2022-09-09T10:52:40;6;6;
55911;PMS5003;41823;45.534;-73.332;2022-09-09T10:55:16;6;6;
55911;PMS5003;41823;45.534;-73.332;2022-09-09T10:57:47;7;6;
55911;PMS5003;41823;45.534;-73.332;2022-09-09T11:00:18;8;7;
55911;PMS5003;41823;45.534;-73.332;2022-09-09T11:02:48;6;6;
55911;PMS5003;41823;45.534;-73.332;2022-09-09T11:05:24;7;6;
55911;PMS5003;41823;45.534;-73.332;2022-09-09T11:07:58;7;7;
55911;PMS5003;41823;45.534;-73.332;2022-09-09T11:10:33;6;6;
55911;PMS5003;41823;45.534;-73.332;2022-09-09T11:13:08;7;6;
55911;PMS5003;41823;45.534;-73.332;2022-09-09T11:15:43;5;5;
55911;PMS5003;41823;45.534;-73.332;2022-09-09T11:18:17;5;5;
55911;PMS5003;41823;45.534;-73.332;2022-09-09T11:20:47;7;6;
55911;PMS5003;41823;45.534;-73.332;2022-09-09T11:23:20;7;7;
55911;PMS5003;41823;45.534;-73.332;2022-09-09T11:25:53;7;7;
55911;PMS5003;41823;45.534;-73.332;2022-09-09T11:28:29;6;5;
55911;PMS5003;41823;45.534;-73.332;2022-09-09T11:31:19;5;5;
55911;PMS5003;41823;45.534;-73.332;2022-09-09T11:34:02;6;6;
55911;PMS5003;41823;45.534;-73.332;2022-09-09T11:37:01;5;5;
55911;PMS5003;41823;45.534;-73.332;2022-09-09T11:40:08;6;6;
55911;PMS5003;41823;45.534;-73.332;2022-09-09T11:42:43;4;4;
55911;PMS5003;41823;45.534;-73.332;2022-09-09T11:45:15;4;4;
55911;PMS5003;41823;45.534;-73.332;2022-09-09T11:47:53;6;6;
55911;PMS5003;41823;45.534;-73.332;2022-09-09T11:50:31;5;5;
55911;PMS5003;41823;45.534;-73.332;2022-09-09T11:53:06;5;5;
55911;PMS5003;41823;45.534;-73.332;2022-09-09T11:55:47;5;5;
55911;PMS5003;41823;45.534;-73.332;2022-09-09T11:58:28;5;4;
55911;PMS5003;41823;45.534;-73.332;2022-09-09T12:01:02;5;5;
55911;PMS5003;41823;45.534;-73.332;2022-09-09T12:03:43;5;5;
55911;PMS5003;41823;45.534;-73.332;2022-09-09T12:06:14;6;6;
55911;PMS5003;41823;45.534;-73.332;2022-09-09T12:08:47;5;5;
55911;PMS5003;41823;45.534;-73.332;2022-09-09T12:11:26;3;3;
55911;PMS5003;41823;45.534;-73.332;2022-09-09T12:13:56;5;5;
55911;PMS5003;41823;45.534;-73.332;2022-09-09T12:16:30;5;5;
55911;PMS5003;41823;45.534;-73.332;2022-09-09T12:19:03;7;6;
55911;PMS5003;41823;45.534;-73.332;2022-09-09T12:21:35;4;4;
55911;PMS5003;41823;45.534;-73.332;2022-09-09T12:24:10;5;5;
55911;PMS5003;41823;45.534;-73.332;2022-09-09T12:26:41;5;5;
55911;PMS5003;41823;45.534;-73.332;2022-09-09T12:29:19;6;5;
55911;PMS5003;41823;45.534;-73.332;2022-09-09T12:31:56;6;5;
55911;PMS5003;41823;45.534;-73.332;2022-09-09T12:34:33;4;4;
55911;PMS5003;41823;45.534;-73.332;2022-09-09T12:37:08;3;3;
55911;PMS5003;41823;45.534;-73.332;2022-09-09T12:39:43;5;5;
55911;PMS5003;41823;45.534;-73.332;2022-09-09T12:42:18;4;4;
55911;PMS5003;41823;45.534;-73.332;2022-09-09T12:44:55;5;5;
55911;PMS5003;41823;45.534;-73.332;2022-09-09T12:47:25;4;4;
55911;PMS5003;41823;45.534;-73.332;2022-09-09T12:50:04;4;4;
55911;PMS5003;41823;45.534;-73.332;2022-09-09T12:52:42;5;4;
55911;PMS5003;41823;45.534;-73.332;2022-09-09T12:55:16;3;3;
55911;PMS5003;41823;45.534;-73.332;2022-09-09T12:57:45;5;5;
55911;PMS5003;41823;45.534;-73.332;2022-09-09T13:00:15;4;4;
55911;PMS5003;41823;45.534;-73.332;2022-09-09T13:02:47;5;5;
55911;PMS5003;41823;45.534;-73.332;2022-09-09T13:05:19;5;5;
55911;PMS5003;41823;45.534;-73.332;2022-09-09T13:07:49;6;6;
55911;PMS5003;41823;45.534;-73.332;2022-09-09T13:10:21;4;4;
55911;PMS5003;41823;45.534;-73.332;2022-09-09T13:12:53;7;6;
55911;PMS5003;41823;45.534;-73.332;2022-09-09T13:15:22;6;6;
55911;PMS5003;41823;45.534;-73.332;2022-09-09T13:17:53;6;6;
55911;PMS5003;41823;45.534;-73.332;2022-09-09T13:20:24;6;6;
55911;PMS5003;41823;45.534;-73.332;2022-09-09T13:22:52;6;6;
55911;PMS5003;41823;45.534;-73.332;2022-09-09T13:25:23;5;5;
55911;PMS5003;41823;45.534;-73.332;2022-09-09T13:27:54;7;7;
55911;PMS5003;41823;45.534;-73.332;2022-09-09T13:30:24;6;5;
55911;PMS5003;41823;45.534;-73.332;2022-09-09T13:33:03;5;5;
55911;PMS5003;41823;45.534;-73.332;2022-09-09T13:35:33;5;5;
55911;PMS5003;41823;45.534;-73.332;2022-09-09T13:38:07;9;6;
55911;PMS5003;41823;45.534;-73.332;2022-09-09T13:40:35;7;7;
55911;PMS5003;41823;45.534;-73.332;2022-09-09T13:43:05;6;5;
55911;PMS5003;41823;45.534;-73.332;2022-09-09T13:45:52;6;6;
55911;PMS5003;41823;45.534;-73.332;2022-09-09T13:48:22;5;5;
55911;PMS5003;41823;45.534;-73.332;2022-09-09T13:50:54;5;5;
55911;PMS5003;41823;45.534;-73.332;2022-09-09T13:53:23;6;6;
55911;PMS5003;41823;45.534;-73.332;2022-09-09T13:55:51;6;6;
55911;PMS5003;41823;45.534;-73.332;2022-09-09T13:58:20;5;4;
55911;PMS5003;41823;45.534;-73.332;2022-09-09T14:00:48;6;6;
55911;PMS5003;41823;45.534;-73.332;2022-09-09T14:03:16;12;7;
55911;PMS5003;41823;45.534;-73.332;2022-09-09T14:05:44;6;6;
55911;PMS5003;41823;45.534;-73.332;2022-09-09T14:08:15;7;7;
55911;PMS5003;41823;45.534;-73.332;2022-09-09T14:10:50;6;6;
55911;PMS5003;41823;45.534;-73.332;2022-09-09T14:13:18;6;6;
55911;PMS5003;41823;45.534;-73.332;2022-09-09T14:15:47;7;6;
55911;PMS5003;41823;45.534;-73.332;2022-09-09T14:18:16;7;6;
55911;PMS5003;41823;45.534;-73.332;2022-09-09T14:20:44;6;6;
55911;PMS5003;41823;45.534;-73.332;2022-09-09T14:23:12;6;5;
55911;PMS5003;41823;45.534;-73.332;2022-09-09T14:25:41;5;5;
55911;PMS5003;41823;45.534;-73.332;2022-09-09T14:28:11;5;5;
55911;PMS5003;41823;45.534;-73.332;2022-09-09T14:30:40;6;6;
55911;PMS5003;41823;45.534;-73.332;2022-09-09T14:33:10;7;7;
55911;PMS5003;41823;45.534;-73.332;2022-09-09T14:35:39;8;8;
55911;PMS5003;41823;45.534;-73.332;2022-09-09T14:38:08;7;6;
55911;PMS5003;41823;45.534;-73.332;2022-09-09T14:40:36;6;6;
55911;PMS5003;41823;45.534;-73.332;2022-09-09T14:43:05;5;5;
55911;PMS5003;41823;45.534;-73.332;2022-09-09T14:45:37;6;6;
55911;PMS5003;41823;45.534;-73.332;2022-09-09T14:48:05;5;5;
55911;PMS5003;41823;45.534;-73.332;2022-09-09T14:50:33;5;5;
55911;PMS5003;41823;45.534;-73.332;2022-09-09T14:53:01;6;6;
55911;PMS5003;41823;45.534;-73.332;2022-09-09T14:55:29;5;5;
55911;PMS5003;41823;45.534;-73.332;2022-09-09T14:57:57;6;5;
55911;PMS5003;41823;45.534;-73.332;2022-09-09T15:00:25;9;6;
55911;PMS5003;41823;45.534;-73.332;2022-09-09T15:02:54;5;5;
55911;PMS5003;41823;45.534;-73.332;2022-09-09T15:05:22;4;4;
55911;PMS5003;41823;45.534;-73.332;2022-09-09T15:07:50;5;5;
55911;PMS5003;41823;45.534;-73.332;2022-09-09T15:10:18;6;6;
55911;PMS5003;41823;45.534;-73.332;2022-09-09T15:12:46;8;5;
55911;PMS5003;41823;45.534;-73.332;2022-09-09T15:15:14;5;5;
55911;PMS5003;41823;45.534;-73.332;2022-09-09T15:17:43;5;5;
55911;PMS5003;41823;45.534;-73.332;2022-09-09T15:20:10;5;5;
55911;PMS5003;41823;45.534;-73.332;2022-09-09T15:22:38;5;4;
55911;PMS5003;41823;45.534;-73.332;2022-09-09T15:25:08;6;6;
55911;PMS5003;41823;45.534;-73.332;2022-09-09T15:27:36;6;5;
55911;PMS5003;41823;45.534;-73.332;2022-09-09T15:30:04;5;5;
55911;PMS5003;41823;45.534;-73.332;2022-09-09T15:32:33;5;4;
55911;PMS5003;41823;45.534;-73.332;2022-09-09T15:35:01;6;3;
55911;PMS5003;41823;45.534;-73.332;2022-09-09T15:37:28;4;4;
55911;PMS5003;41823;45.534;-73.332;2022-09-09T15:39:56;5;5;
55911;PMS5003;41823;45.534;-73.332;2022-09-09T15:42:24;5;5;
55911;PMS5003;41823;45.534;-73.332;2022-09-09T15:44:52;5;5;
55911;PMS5003;41823;45.534;-73.332;2022-09-09T15:47:20;5;5;
55911;PMS5003;41823;45.534;-73.332;2022-09-09T15:49:48;4;4;
55911;PMS5003;41823;45.534;-73.332;2022-09-09T15:52:16;4;4;
55911;PMS5003;41823;45.534;-73.332;2022-09-09T15:54:44;6;5;
55911;PMS5003;41823;45.534;-73.332;2022-09-09T15:57:12;4;4;
55911;PMS5003;41823;45.534;-73.332;2022-09-09T15:59:40;6;6;
55911;PMS5003;41823;45.534;-73.332;2022-09-09T16:02:08;4;4;
55911;PMS5003;41823;45.534;-73.332;2022-09-09T16:04:36;4;4;
55911;PMS5003;41823;45.534;-73.332;2022-09-09T16:07:04;6;5;
55911;PMS5003;41823;45.534;-73.332;2022-09-09T16:09:33;4;4;
55911;PMS5003;41823;45.534;-73.332;2022-09-09T16:12:02;5;4;
55911;PMS5003;41823;45.534;-73.332;2022-09-09T16:14:32;5;5;
55911;PMS5003;41823;45.534;-73.332;2022-09-09T16:16:59;7;7;
55911;PMS5003;41823;45.534;-73.332;2022-09-09T16:19:27;5;5;
55911;PMS5003;41823;45.534;-73.332;2022-09-09T16:21:55;6;6;
55911;PMS5003;41823;45.534;-73.332;2022-09-09T16:24:23;6;6;
55911;PMS5003;41823;45.534;-73.332;2022-09-09T16:26:52;4;4;
55911;PMS5003;41823;45.534;-73.332;2022-09-09T16:29:21;5;5;
55911;PMS5003;41823;45.534;-73.332;2022-09-09T16:31:49;5;5;
55911;PMS5003;41823;45.534;-73.332;2022-09-09T16:34:17;6;5;
55911;PMS5003;41823;45.534;-73.332;2022-09-09T16:36:46;5;4;
55911;PMS5003;41823;45.534;-73.332;2022-09-09T16:39:15;7;6;
55911;PMS5003;41823;45.534;-73.332;2022-09-09T16:41:44;5;5;